Time;durP1;ratioP1;P1;durP2;ratioP2;P2;SDS_P1;SDS_P2;PMS_P1;PMS_P2;Temp;Humidity;BMP_temperature;BMP_pressure;BME280_temperature;BME280_humidity;BME280_pressure;Samples;Min_cycle;Max_cycle;Signal;HPM_P1;HPM_P2
2023/07/22 00:00:17;;;;;;;11.48;5.13;;;;;;;28.15;52.57;99180.84;5009845;28;20025;-77
2023/07/22 00:02:43;;;;;;;12.50;5.65;;;;;;;28.17;52.39;99181.19;5010511;28;20022;-77
2023/07/22 00:05:10;;;;;;;8.15;5.40;;;;;;;28.07;53.26;99177.41;5010170;28;20479;-77
2023/07/22 00:07:36;;;;;;;8.05;5.22;;;;;;;28.04;52.64;99181.22;5011475;28;20492;-77
2023/07/22 00:10:02;;;;;;;8.07;5.35;;;;;;;27.99;53.17;99181.78;5010294;28;20060;-77
2023/07/22 00:12:28;;;;;;;8.65;5.20;;;;;;;27.98;53.39;99168.69;5010737;28;20033;-77
2023/07/22 00:14:53;;;;;;;9.23;4.95;;;;;;;27.95;53.36;99176.19;5006166;28;20033;-77
2023/07/22 00:17:19;;;;;;;9.00;4.93;;;;;;;27.99;53.29;99176.03;5010093;28;20033;-77
2023/07/22 00:19:44;;;;;;;9.50;5.82;;;;;;;28.01;53.10;99191.56;5011217;28;20018;-77
2023/07/22 00:22:09;;;;;;;7.70;4.97;;;;;;;28.07;53.47;99186.03;5010495;28;20022;-77
2023/07/22 00:24:35;;;;;;;10.27;4.60;;;;;;;28.00;53.07;99181.34;5009092;28;20468;-77
2023/07/22 00:27:01;;;;;;;11.25;5.57;;;;;;;28.05;52.99;99182.00;5009142;28;20463;-77
2023/07/22 00:29:26;;;;;;;13.65;5.32;;;;;;;28.17;52.49;99166.81;5012405;28;20022;-77
2023/07/22 00:31:51;;;;;;;10.18;5.13;;;;;;;28.10;52.78;99185.09;5010257;28;20063;-77
2023/07/22 00:34:17;;;;;;;7.97;5.55;;;;;;;27.81;54.00;99183.22;5007964;28;20058;-77
2023/07/22 00:36:44;;;;;;;10.10;5.07;;;;;;;27.72;53.89;99183.09;5005819;28;20416;-77
2023/07/22 00:39:09;;;;;;;7.80;4.65;;;;;;;27.75;54.08;99188.72;5010493;28;20024;-77
2023/07/22 00:41:35;;;;;;;10.77;4.75;;;;;;;27.54;54.64;99187.38;5012123;28;20400;-77
2023/07/22 00:44:00;;;;;;;8.15;4.43;;;;;;;27.48;54.64;99192.03;5009186;28;20408;-77
2023/07/22 00:46:26;;;;;;;9.40;6.13;;;;;;;27.59;54.69;99200.34;5010420;28;20105;-77
2023/07/22 00:48:52;;;;;;;9.38;5.20;;;;;;;27.56;54.64;99199.19;5010942;28;20022;-77
2023/07/22 00:51:19;;;;;;;11.55;5.60;;;;;;;27.70;54.36;99202.88;5010560;28;20113;-77
2023/07/22 00:53:44;;;;;;;10.50;5.55;;;;;;;27.72;54.35;99208.94;5010853;28;20084;-77
2023/07/22 00:56:10;;;;;;;11.27;5.63;;;;;;;27.75;53.74;99202.28;5009343;28;20029;-77
2023/07/22 00:58:35;;;;;;;11.30;5.35;;;;;;;27.66;54.11;99196.44;5011313;28;20080;-77
2023/07/22 01:01:01;;;;;;;7.53;5.68;;;;;;;27.64;54.61;99205.50;5009848;28;20026;-77
2023/07/22 01:03:26;;;;;;;11.23;5.60;;;;;;;27.43;54.97;99201.22;5010591;28;20496;-77
2023/07/22 01:05:54;;;;;;;9.25;5.85;;;;;;;27.35;55.46;99208.44;5011772;28;20400;-77
2023/07/22 01:08:20;;;;;;;14.73;6.68;;;;;;;27.24;55.40;99206.72;5008807;28;20101;-77
2023/07/22 01:10:46;;;;;;;7.00;5.70;;;;;;;27.32;55.41;99210.97;5010695;28;20025;-77
2023/07/22 01:13:11;;;;;;;7.47;5.78;;;;;;;27.39;55.29;99209.13;5009561;28;20412;-77
2023/07/22 01:15:38;;;;;;;14.73;6.85;;;;;;;27.22;55.47;99205.56;5009192;28;20480;-77
2023/07/22 01:18:03;;;;;;;12.43;6.07;;;;;;;27.22;55.54;99214.97;5010118;28;20055;-77
2023/07/22 01:20:30;;;;;;;8.13;5.60;;;;;;;27.27;55.60;99217.31;5008665;28;20116;-77
2023/07/22 01:22:56;;;;;;;8.23;5.55;;;;;;;27.26;55.57;99220.63;5011434;28;20412;-78
2023/07/22 01:25:22;;;;;;;7.03;5.75;;;;;;;27.21;55.82;99230.59;5010533;28;20026;-77
2023/07/22 01:27:49;;;;;;;10.73;6.40;;;;;;;27.22;55.87;99225.66;5024308;28;20045;-77
2023/07/22 01:30:15;;;;;;;14.15;6.90;;;;;;;27.24;55.68;99231.75;5010543;28;20018;-77
2023/07/22 01:32:40;;;;;;;7.88;5.90;;;;;;;26.73;57.69;99236.84;5009402;28;20107;-77
2023/07/22 01:35:09;;;;;;;9.48;6.18;;;;;;;26.51;58.09;99230.91;5009478;28;20459;-77
2023/07/22 01:37:35;;;;;;;13.73;6.72;;;;;;;25.55;61.47;99230.75;5011363;28;20037;-77
2023/07/22 01:40:11;;;;;;;15.63;7.20;;;;;;;25.65;61.43;99220.34;5009515;28;20034;-77
2023/07/22 01:42:37;;;;;;;10.55;6.53;;;;;;;24.78;64.46;99225.81;5010274;28;20072;-77
2023/07/22 01:45:06;;;;;;;10.93;6.47;;;;;;;24.50;65.88;99230.00;5009337;28;20436;-77
2023/07/22 01:47:31;;;;;;;11.40;7.43;;;;;;;24.29;66.70;99222.63;5010045;28;20053;-77
2023/07/22 01:49:56;;;;;;;7.78;6.35;;;;;;;24.29;66.58;99219.78;5008237;28;20061;-77
2023/07/22 01:52:22;;;;;;;12.70;8.13;;;;;;;24.08;67.66;99224.63;5007302;28;20038;-75
2023/07/22 01:54:47;;;;;;;13.25;7.10;;;;;;;24.22;67.42;99223.56;5003263;28;20029;-76
2023/07/22 01:57:13;;;;;;;11.15;6.95;;;;;;;24.15;67.61;99235.94;5008769;28;20148;-75
2023/07/22 01:59:39;;;;;;;15.52;7.65;;;;;;;23.88;68.60;99241.66;5008614;28;20198;-75
2023/07/22 02:02:05;;;;;;;11.65;7.32;;;;;;;23.95;68.50;99222.34;5008403;28;20030;-75
2023/07/22 02:04:30;;;;;;;10.98;6.80;;;;;;;23.93;67.85;99230.53;5020128;28;20133;-75
2023/07/22 02:06:56;;;;;;;9.98;7.18;;;;;;;23.90;67.94;99231.41;5017941;28;20541;-76
2023/07/22 02:09:24;;;;;;;11.15;8.15;;;;;;;24.17;66.49;99224.06;5010289;28;20033;-75
2023/07/22 02:11:50;;;;;;;10.80;6.57;;;;;;;24.33;65.93;99227.06;5010981;28;20025;-76
2023/07/22 02:14:15;;;;;;;14.60;7.60;;;;;;;24.31;65.65;99223.78;5009561;28;20030;-76
2023/07/22 02:16:44;;;;;;;12.45;8.05;;;;;;;24.35;65.52;99227.41;5007128;28;20053;-75
2023/07/22 02:19:09;;;;;;;10.77;7.43;;;;;;;24.15;65.99;99235.94;5010242;28;20030;-76
2023/07/22 02:21:35;;;;;;;14.85;6.78;;;;;;;24.25;65.69;99246.38;5008358;28;20030;-77
2023/07/22 02:24:00;;;;;;;16.98;8.52;;;;;;;24.29;65.17;99239.78;5010488;28;20025;-77
2023/07/22 02:26:26;;;;;;;11.65;6.90;;;;;;;24.42;64.26;99231.38;5010137;28;20116;-76
2023/07/22 02:28:51;;;;;;;13.00;7.13;;;;;;;24.42;64.02;99232.19;5009718;28;20088;-78
2023/07/22 02:31:16;;;;;;;11.95;7.57;;;;;;;24.66;63.50;99232.94;5009169;28;20033;-79
2023/07/22 02:33:43;;;;;;;17.58;7.90;;;;;;;24.86;62.59;99229.34;5008748;28;20056;-80
2023/07/22 02:36:09;;;;;;;15.02;7.65;;;;;;;24.84;62.05;99217.53;5008518;28;20038;-77
2023/07/22 02:38:34;;;;;;;13.77;6.80;;;;;;;25.07;61.60;99219.50;5010821;28;20041;-78
2023/07/22 02:41:07;;;;;;;20.90;7.45;;;;;;;25.32;60.59;99218.16;5007245;28;20049;-80
2023/07/22 02:43:34;;;;;;;17.13;7.70;;;;;;;25.53;60.59;99227.53;5008686;28;20033;-79
2023/07/22 02:46:02;;;;;;;12.35;7.35;;;;;;;25.56;61.08;99226.66;5009633;28;20404;-79
2023/07/22 02:48:31;;;;;;;14.38;7.43;;;;;;;25.70;60.35;99230.41;5012418;28;20030;-79
2023/07/22 02:51:05;;;;;;;19.45;7.57;;;;;;;25.61;60.00;99220.41;5012785;28;20555;-76
2023/07/22 02:53:32;;;;;;;13.20;7.20;;;;;;;25.65;59.08;99226.84;5011723;28;20500;-76
2023/07/22 02:55:58;;;;;;;15.00;7.22;;;;;;;25.55;59.28;99236.50;5011149;28;20029;-76
2023/07/22 02:58:24;;;;;;;11.23;6.65;;;;;;;24.92;61.62;99239.03;5010312;28;20550;-76
2023/07/22 03:00:49;;;;;;;13.30;7.22;;;;;;;25.31;60.31;99232.91;5013001;28;20021;-76
2023/07/22 03:03:15;;;;;;;44.92;8.02;;;;;;;25.56;58.97;99220.91;5011647;28;20018;-76
2023/07/22 03:05:40;;;;;;;25.92;8.23;;;;;;;25.55;58.80;99222.16;5011899;28;20022;-76
2023/07/22 03:08:06;;;;;;;18.40;7.95;;;;;;;25.65;58.53;99218.25;5012996;28;20026;-76
2023/07/22 03:10:32;;;;;;;16.65;8.02;;;;;;;25.74;58.58;99213.97;5010665;28;20041;-76
2023/07/22 03:12:59;;;;;;;25.77;7.80;;;;;;;25.81;58.18;99213.78;5013805;28;20408;-76
2023/07/22 03:15:28;;;;;;;17.20;7.03;;;;;;;25.76;58.47;99206.56;5002887;28;20030;-76
2023/07/22 03:17:59;;;;;;;15.68;7.82;;;;;;;25.63;59.16;99220.75;5010843;28;20033;-76
2023/07/22 03:20:25;;;;;;;33.65;7.80;;;;;;;25.46;59.31;99222.75;5010065;28;20025;-76
2023/07/22 03:22:51;;;;;;;17.95;7.28;;;;;;;25.65;58.72;99226.84;5013571;28;20090;-76
2023/07/22 03:25:17;;;;;;;17.45;7.35;;;;;;;25.32;59.04;99232.47;5012266;28;20036;-76
2023/07/22 03:27:44;;;;;;;13.63;7.57;;;;;;;24.70;60.73;99224.31;5011170;28;20025;-76
2023/07/22 03:30:14;;;;;;;13.27;7.50;;;;;;;24.23;62.02;99214.56;5011021;28;20034;-76
2023/07/22 03:32:42;;;;;;;12.13;8.27;;;;;;;23.66;64.32;99228.53;5011214;28;20045;-76
2023/07/22 03:35:09;;;;;;;16.67;9.23;;;;;;;23.22;65.99;99221.78;5011921;28;20056;-76
2023/07/22 03:37:36;;;;;;;13.25;7.68;;;;;;;23.06;67.05;99230.94;5013376;28;20022;-76
2023/07/22 03:40:19;;;;;;;15.40;8.60;;;;;;;23.18;66.64;99235.28;5012221;28;20049;-76
2023/07/22 03:42:51;;;;;;;13.38;8.18;;;;;;;23.01;67.44;99240.78;5012135;28;20029;-76
2023/07/22 03:45:17;;;;;;;19.40;8.55;;;;;;;23.22;66.74;99241.75;5013166;28;20025;-76
2023/07/22 03:47:49;;;;;;;11.63;8.25;;;;;;;23.04;67.67;99233.41;5009273;28;20030;-76
2023/07/22 03:50:15;;;;;;;13.70;8.23;;;;;;;22.99;68.24;99237.53;5006076;28;20076;-76
2023/07/22 03:52:40;;;;;;;15.57;8.73;;;;;;;23.02;68.74;99241.59;5011489;28;20038;-76
2023/07/22 03:55:06;;;;;;;10.70;7.85;;;;;;;23.48;67.56;99248.75;5012856;28;20025;-76
2023/07/22 03:57:32;;;;;;;12.85;9.80;;;;;;;23.29;68.32;99250.25;5011648;28;20033;-76
2023/07/22 03:59:57;;;;;;;21.73;10.82;;;;;;;23.13;69.60;99247.97;5008304;28;20033;-76
2023/07/22 04:02:24;;;;;;;27.58;10.98;;;;;;;23.06;70.48;99251.72;5009876;28;20578;-76
2023/07/22 04:04:53;;;;;;;24.48;10.40;;;;;;;23.08;70.98;99252.09;5011602;28;20030;-76
2023/07/22 04:07:19;;;;;;;29.17;12.00;;;;;;;22.97;71.21;99249.38;5011527;28;20041;-76
2023/07/22 04:09:45;;;;;;;21.52;10.70;;;;;;;23.38;70.25;99264.78;5010831;28;20030;-76
2023/07/22 04:12:10;;;;;;;17.90;9.73;;;;;;;23.35;70.20;99265.63;5011612;28;20109;-76
2023/07/22 04:14:36;;;;;;;21.15;9.25;;;;;;;23.51;69.62;99267.88;5012646;28;20108;-76
2023/07/22 04:17:04;;;;;;;18.15;10.18;;;;;;;23.64;69.00;99258.72;5009940;28;20057;-76
2023/07/22 04:19:29;;;;;;;24.48;10.38;;;;;;;23.87;68.28;99260.03;5006918;28;20116;-76
2023/07/22 04:21:55;;;;;;;19.50;11.18;;;;;;;23.66;68.88;99251.38;5012488;28;20552;-76
2023/07/22 04:24:20;;;;;;;18.95;9.98;;;;;;;23.74;68.65;99265.50;5011581;28;20026;-76
2023/07/22 04:26:46;;;;;;;18.75;9.95;;;;;;;23.70;69.33;99263.53;5011824;28;20049;-76
2023/07/22 04:29:12;;;;;;;12.27;9.30;;;;;;;23.92;68.42;99262.38;5012352;28;20044;-76
2023/07/22 04:31:38;;;;;;;17.63;9.07;;;;;;;23.44;70.61;99262.25;5004449;28;20363;-76
2023/07/22 04:34:03;;;;;;;14.18;8.48;;;;;;;23.70;70.12;99266.38;5004368;28;21289;-76
2023/07/22 04:36:29;;;;;;;22.60;9.55;;;;;;;24.06;68.05;99267.09;5008777;28;20041;-76
2023/07/22 04:38:54;;;;;;;12.35;8.52;;;;;;;24.34;66.63;99262.97;5009825;28;20033;-76
2023/07/22 04:41:19;;;;;;;18.83;9.68;;;;;;;24.56;65.52;99262.56;5007339;28;20041;-76
2023/07/22 04:43:45;;;;;;;25.95;9.65;;;;;;;24.46;66.14;99267.22;5017059;28;20472;-76
2023/07/22 04:46:10;;;;;;;12.50;8.23;;;;;;;24.58;64.90;99256.41;5011313;28;20022;-76
2023/07/22 04:48:36;;;;;;;22.75;9.95;;;;;;;24.48;65.31;99256.16;5011969;28;20061;-76
2023/07/22 04:51:02;;;;;;;19.30;8.15;;;;;;;24.51;65.74;99260.19;5009451;28;20038;-76
2023/07/22 04:53:28;;;;;;;12.20;8.23;;;;;;;24.76;64.05;99264.63;5007809;28;20033;-76
2023/07/22 04:55:55;;;;;;;16.42;9.25;;;;;;;24.84;63.83;99265.34;5008412;28;20046;-76
2023/07/22 04:58:20;;;;;;;12.10;8.45;;;;;;;25.04;62.97;99265.34;5004243;28;20034;-76
2023/07/22 05:00:46;;;;;;;17.88;8.38;;;;;;;25.21;62.38;99260.50;5008380;28;20025;-76
2023/07/22 05:03:11;;;;;;;12.50;7.45;;;;;;;25.17;62.69;99262.63;5009079;28;20034;-77
2023/07/22 05:05:38;;;;;;;16.70;8.07;;;;;;;25.21;62.31;99269.91;5009397;28;20029;-77
2023/07/22 05:08:03;;;;;;;16.73;9.00;;;;;;;25.07;63.49;99281.66;5008051;28;20045;-73
2023/07/22 05:10:29;;;;;;;15.63;8.90;;;;;;;25.12;63.18;99274.63;4987542;28;20026;-74
2023/07/22 05:12:56;;;;;;;21.33;8.45;;;;;;;25.45;62.81;99269.81;4992307;28;20028;-75
2023/07/22 05:15:22;;;;;;;48.35;10.05;;;;;;;25.67;61.74;99260.78;5006877;28;20021;-71
2023/07/22 05:17:47;;;;;;;18.17;9.10;;;;;;;25.92;60.80;99274.50;5005369;28;20037;-73
2023/07/22 05:20:13;;;;;;;16.60;8.48;;;;;;;26.09;60.24;99263.06;5001527;28;20022;-71
2023/07/22 05:22:41;;;;;;;19.58;7.57;;;;;;;26.47;59.18;99264.56;5005844;28;20029;-74
2023/07/22 05:25:07;;;;;;;15.73;8.63;;;;;;;26.31;59.97;99274.03;4997366;28;20053;-74
2023/07/22 05:27:33;;;;;;;11.20;8.55;;;;;;;26.45;59.44;99273.66;4999260;28;20030;-73
2023/07/22 05:29:59;;;;;;;15.23;8.45;;;;;;;26.28;59.96;99272.84;4992266;28;20567;-73
2023/07/22 05:32:24;;;;;;;12.48;7.70;;;;;;;26.51;59.33;99265.31;5001108;28;20057;-72
2023/07/22 05:34:50;;;;;;;19.85;11.07;;;;;;;26.68;59.33;99263.22;4994879;28;20156;-73
2023/07/22 05:37:15;;;;;;;21.98;8.20;;;;;;;27.00;59.80;99272.22;4990456;28;20033;-74
2023/07/22 05:39:41;;;;;;;14.48;7.57;;;;;;;27.13;58.77;99283.72;4999162;28;20033;-74
2023/07/22 05:42:06;;;;;;;10.23;7.07;;;;;;;27.19;58.62;99264.69;5004171;28;20457;-71
2023/07/22 05:44:32;;;;;;;15.02;7.80;;;;;;;27.51;58.77;99271.50;5000106;28;20053;-71
2023/07/22 05:46:57;;;;;;;16.35;7.38;;;;;;;27.62;57.94;99271.22;5006127;28;20064;-72
2023/07/22 05:49:23;;;;;;;18.98;7.07;;;;;;;27.70;57.56;99278.38;5007359;28;20042;-72
2023/07/22 05:51:48;;;;;;;14.75;7.40;;;;;;;27.27;58.96;99268.97;5002585;28;20026;-70
2023/07/22 05:54:14;;;;;;;12.88;7.15;;;;;;;27.49;58.35;99276.91;4999703;28;20037;-70
2023/07/22 05:56:39;;;;;;;13.68;8.07;;;;;;;27.27;58.77;99265.28;5007075;28;20034;-71
2023/07/22 05:59:05;;;;;;;14.40;7.78;;;;;;;27.87;58.16;99269.63;5007260;28;20042;-70
2023/07/22 06:01:31;;;;;;;16.90;7.70;;;;;;;28.22;56.97;99277.56;5008496;28;20034;-71
2023/07/22 06:03:56;;;;;;;15.55;7.72;;;;;;;28.30;56.29;99278.94;5008495;28;20087;-71
2023/07/22 06:06:22;;;;;;;12.75;6.55;;;;;;;28.37;55.42;99272.94;5003273;28;20412;-72
2023/07/22 06:08:47;;;;;;;15.45;6.97;;;;;;;28.61;55.44;99266.78;5004326;28;20042;-73
2023/07/22 06:11:13;;;;;;;12.82;7.47;;;;;;;28.54;54.31;99264.16;5002332;28;20120;-74
2023/07/22 06:13:38;;;;;;;7.70;6.65;;;;;;;28.69;54.08;99262.38;5003278;28;20034;-72
2023/07/22 06:16:04;;;;;;;11.77;7.03;;;;;;;28.37;54.87;99258.56;4998297;28;20472;-74
2023/07/22 06:18:29;;;;;;;13.43;7.28;;;;;;;28.04;56.30;99267.44;5001027;28;20677;-71
2023/07/22 06:20:55;;;;;;;16.65;7.35;;;;;;;28.48;55.29;99266.00;4990118;28;20027;-71
2023/07/22 06:23:20;;;;;;;12.35;7.22;;;;;;;28.13;56.38;99275.38;4991516;28;20046;-71
2023/07/22 06:25:46;;;;;;;14.52;7.05;;;;;;;28.08;55.95;99273.88;5013582;28;20022;-72
2023/07/22 06:28:11;;;;;;;14.05;6.72;;;;;;;28.54;54.61;99269.91;5014783;28;20032;-72
2023/07/22 06:30:36;;;;;;;10.35;6.50;;;;;;;28.54;54.72;99269.91;5013267;28;20021;-72
2023/07/22 06:33:02;;;;;;;10.65;7.28;;;;;;;28.45;54.26;99270.63;5013101;28;20025;-72
2023/07/22 06:35:28;;;;;;;19.50;8.27;;;;;;;28.78;54.79;99266.59;5013537;28;20033;-72
2023/07/22 06:37:53;;;;;;;13.77;7.22;;;;;;;28.92;53.08;99262.44;5013240;28;20017;-72
2023/07/22 06:40:18;;;;;;;14.18;6.75;;;;;;;29.00;54.66;99261.72;5014240;28;20519;-72
2023/07/22 06:42:44;;;;;;;12.10;6.85;;;;;;;28.58;54.19;99267.69;5014397;28;20021;-72
2023/07/22 06:45:10;;;;;;;10.13;6.80;;;;;;;28.77;54.01;99277.31;5014479;28;20021;-72
2023/07/22 06:47:36;;;;;;;11.60;8.07;;;;;;;28.84;53.96;99271.34;5013043;28;20026;-72
2023/07/22 06:50:04;;;;;;;10.50;6.60;;;;;;;29.41;53.81;99272.53;5013327;28;20088;-72
2023/07/22 06:52:33;;;;;;;11.93;7.70;;;;;;;29.51;53.24;99268.47;5014142;28;20065;-72
2023/07/22 06:54:59;;;;;;;18.05;6.72;;;;;;;29.79;52.40;99257.06;5013978;28;20049;-73
2023/07/22 06:57:25;;;;;;;15.05;7.50;;;;;;;29.93;52.97;99260.66;5012755;28;20058;-73
2023/07/22 06:59:56;;;;;;;17.00;7.47;;;;;;;29.88;53.75;99255.50;5014376;28;20049;-73
2023/07/22 07:02:22;;;;;;;11.73;7.93;;;;;;;30.12;52.78;99262.34;5012757;28;20022;-73
2023/07/22 07:04:47;;;;;;;13.68;6.50;;;;;;;30.45;52.76;99266.75;5014105;28;20022;-73
2023/07/22 07:07:14;;;;;;;14.02;6.70;;;;;;;30.39;51.48;99262.91;5012483;28;20092;-73
2023/07/22 07:09:40;;;;;;;11.40;6.75;;;;;;;30.35;50.76;99260.16;5011909;28;20037;-73
2023/07/22 07:12:06;;;;;;;10.27;7.00;;;;;;;30.53;50.59;99261.50;5012614;28;20022;-73
2023/07/22 07:14:33;;;;;;;11.90;6.90;;;;;;;30.63;51.64;99274.66;5009856;28;20670;-73
2023/07/22 07:16:58;;;;;;;8.82;6.75;;;;;;;30.00;50.36;99269.00;5008379;28;20030;-73
2023/07/22 07:19:24;;;;;;;13.30;6.30;;;;;;;30.23;50.71;99264.81;5013572;28;20018;-73
2023/07/22 07:21:50;;;;;;;14.18;7.70;;;;;;;30.02;51.03;99254.91;5013809;28;20401;-73
2023/07/22 07:24:16;;;;;;;14.45;7.28;;;;;;;30.06;50.41;99254.81;5013378;28;20152;-73
2023/07/22 07:26:41;;;;;;;12.98;7.57;;;;;;;30.02;50.61;99251.25;5013688;28;20033;-73
2023/07/22 07:29:07;;;;;;;8.43;7.45;;;;;;;29.52;52.14;99258.53;5013698;28;20053;-73
2023/07/22 07:31:33;;;;;;;9.43;6.78;;;;;;;29.29;53.04;99260.63;5012384;28;20512;-73
2023/07/22 07:33:58;;;;;;;11.40;7.05;;;;;;;30.03;51.81;99253.63;5011860;28;20046;-73
2023/07/22 07:36:23;;;;;;;15.00;7.65;;;;;;;30.31;50.83;99259.53;5013193;28;20017;-72
2023/07/22 07:38:49;;;;;;;10.20;7.13;;;;;;;30.03;50.74;99264.38;5013039;28;20037;-72
2023/07/22 07:41:14;;;;;;;14.27;7.07;;;;;;;30.02;50.77;99268.53;5011941;28;20018;-73
2023/07/22 07:43:41;;;;;;;10.73;6.88;;;;;;;30.20;50.26;99273.59;5011894;28;20022;-72
2023/07/22 07:46:20;;;;;;;12.15;7.40;;;;;;;30.21;49.87;99280.97;5011958;28;20148;-72
2023/07/22 07:48:47;;;;;;;12.73;6.70;;;;;;;30.17;50.83;99281.09;4998215;28;20084;-71
2023/07/22 07:51:14;;;;;;;19.35;6.95;;;;;;;29.86;51.88;99284.78;5012027;28;20022;-69
2023/07/22 07:53:40;;;;;;;9.27;6.53;;;;;;;29.69;51.92;99287.13;5012717;28;20018;-70
2023/07/22 07:56:06;;;;;;;15.43;7.22;;;;;;;30.26;50.39;99283.22;4998403;28;20457;-70
2023/07/22 07:58:32;;;;;;;14.30;6.78;;;;;;;30.77;48.87;99276.13;4990915;28;20030;-72
2023/07/22 08:00:57;;;;;;;14.43;8.02;;;;;;;30.64;48.84;99276.25;4990892;28;20113;-74
2023/07/22 08:03:23;;;;;;;10.88;6.88;;;;;;;30.77;48.06;99279.00;4990811;28;20034;-72
2023/07/22 08:05:49;;;;;;;16.13;7.40;;;;;;;31.33;48.98;99269.53;4990769;28;20034;-75
2023/07/22 08:08:14;;;;;;;13.93;6.78;;;;;;;31.77;48.09;99274.06;5007992;28;20034;-73
2023/07/22 08:10:40;;;;;;;13.35;6.13;;;;;;;31.88;45.01;99265.69;5010347;28;20040;-75
2023/07/22 08:13:06;;;;;;;11.48;6.63;;;;;;;31.99;45.26;99270.97;5012391;28;20556;-79
2023/07/22 08:15:31;;;;;;;22.80;8.05;;;;;;;32.03;44.67;99262.06;5009097;28;20499;-78
2023/07/22 08:17:57;;;;;;;9.27;6.85;;;;;;;32.27;44.97;99269.97;5010542;28;20025;-77
2023/07/22 08:20:22;;;;;;;9.77;6.05;;;;;;;32.49;44.21;99261.84;5009779;28;20041;-77
2023/07/22 08:22:48;;;;;;;8.60;6.50;;;;;;;32.37;44.67;99253.41;5007941;28;20041;-76
2023/07/22 08:25:13;;;;;;;12.50;6.30;;;;;;;32.07;43.70;99259.81;5008664;28;20148;-76
2023/07/22 08:27:39;;;;;;;10.82;6.97;;;;;;;32.34;43.15;99255.97;5007173;28;20087;-74
2023/07/22 08:30:05;;;;;;;17.00;6.65;;;;;;;31.68;43.76;99253.84;5000000;28;20065;-76
2023/07/22 08:32:30;;;;;;;8.60;7.30;;;;;;;31.75;43.71;99253.50;5008133;28;20492;-76
2023/07/22 08:34:56;;;;;;;12.32;6.93;;;;;;;31.81;44.16;99253.69;5008513;28;20062;-74
2023/07/22 08:37:21;;;;;;;10.80;6.53;;;;;;;32.25;43.58;99256.03;5009745;28;20511;-76
2023/07/22 08:39:47;;;;;;;13.80;7.20;;;;;;;32.76;41.77;99254.25;5007421;28;20117;-76
2023/07/22 08:42:14;;;;;;;12.32;7.45;;;;;;;33.05;41.09;99249.03;5010105;28;20504;-76
2023/07/22 08:44:43;;;;;;;11.13;6.53;;;;;;;33.30;41.91;99238.16;5009469;28;20034;-76
2023/07/22 08:47:14;;;;;;;11.30;6.30;;;;;;;33.36;40.59;99229.56;5009042;28;20500;-76
2023/07/22 08:49:46;;;;;;;11.30;7.75;;;;;;;33.12;41.89;99244.94;5009655;28;20502;-77
2023/07/22 08:52:14;;;;;;;13.95;6.85;;;;;;;33.13;42.32;99227.06;5006072;28;20030;-78
2023/07/22 08:54:40;;;;;;;17.33;7.15;;;;;;;33.67;41.86;99228.28;5007244;28;20495;-75
2023/07/22 08:57:07;;;;;;;10.57;6.85;;;;;;;34.00;40.29;99230.94;5008221;28;20036;-77
2023/07/22 08:59:33;;;;;;;13.40;7.40;;;;;;;34.02;38.51;99231.22;4996538;28;20029;-77
2023/07/22 09:01:59;;;;;;;8.13;6.20;;;;;;;33.46;39.17;99228.19;4996299;28;20507;-77
2023/07/22 09:04:24;;;;;;;18.90;6.78;;;;;;;33.62;39.09;99240.59;4994859;28;20417;-78
2023/07/22 09:06:50;;;;;;;11.32;6.43;;;;;;;34.12;39.66;99229.00;5001921;28;20038;-81
2023/07/22 09:09:17;;;;;;;16.55;8.45;;;;;;;34.45;38.59;99227.06;5005909;28;20443;-77
2023/07/22 09:11:44;;;;;;;10.60;7.32;;;;;;;33.96;38.63;99220.81;5005420;28;20113;-78
2023/07/22 09:14:10;;;;;;;14.30;7.70;;;;;;;33.42;39.83;99231.25;5010626;28;20088;-78
2023/07/22 09:16:37;;;;;;;19.83;7.85;;;;;;;33.63;39.36;99219.00;5006941;28;20416;-78
2023/07/22 09:19:04;;;;;;;10.45;6.47;;;;;;;34.50;39.51;99217.63;4991959;28;20481;-78
2023/07/22 09:21:29;;;;;;;9.93;7.18;;;;;;;34.97;37.82;99208.16;5011213;28;20076;-78
2023/07/22 09:23:55;;;;;;;10.25;7.65;;;;;;;33.69;37.97;99205.38;5010908;28;20029;-78
2023/07/22 09:26:20;;;;;;;13.32;6.63;;;;;;;32.98;39.79;99206.00;5011686;28;20109;-78
2023/07/22 09:28:49;;;;;;;14.27;7.07;;;;;;;33.91;38.72;99192.53;5007313;28;20088;-78
2023/07/22 09:31:14;;;;;;;21.17;9.73;;;;;;;34.36;37.88;99192.38;5008621;28;20076;-78
2023/07/22 09:33:40;;;;;;;9.82;6.40;;;;;;;34.85;37.47;99199.31;5010027;28;20042;-78
2023/07/22 09:36:05;;;;;;;15.77;7.05;;;;;;;35.17;37.61;99189.09;5011312;28;20037;-78
2023/07/22 09:38:31;;;;;;;9.82;6.38;;;;;;;35.28;36.44;99184.16;5011143;28;20030;-78
2023/07/22 09:40:56;;;;;;;12.93;6.93;;;;;;;34.94;36.47;99185.94;5009997;28;20481;-78
2023/07/22 09:43:23;;;;;;;14.07;6.90;;;;;;;34.29;37.46;99182.81;5009053;28;20061;-78
2023/07/22 09:45:49;;;;;;;17.50;7.10;;;;;;;34.56;37.50;99166.28;5011207;28;20540;-78
2023/07/22 09:48:16;;;;;;;8.98;6.40;;;;;;;35.09;37.51;99165.53;5010027;28;20037;-78
2023/07/22 09:50:41;;;;;;;17.60;6.85;;;;;;;35.47;37.74;99160.56;5011063;28;20455;-78
2023/07/22 09:53:07;;;;;;;8.90;7.32;;;;;;;35.63;35.62;99175.75;5009472;28;20038;-80
2023/07/22 09:55:33;;;;;;;14.18;7.22;;;;;;;35.87;34.67;99166.69;5009616;28;20427;-79
2023/07/22 09:58:01;;;;;;;19.35;7.60;;;;;;;36.27;34.67;99164.00;5010963;28;20026;-79
2023/07/22 10:00:31;;;;;;;20.60;7.18;;;;;;;36.35;34.19;99162.16;5014158;28;20072;-79
2023/07/22 10:02:58;;;;;;;13.23;7.25;;;;;;;36.47;34.13;99148.47;5013478;28;20033;-79
2023/07/22 10:05:25;;;;;;;10.70;7.63;;;;;;;36.42;33.56;99166.69;5013757;28;20033;-79
2023/07/22 10:07:58;;;;;;;9.70;6.57;;;;;;;36.68;32.76;99165.72;5013956;28;20033;-79
2023/07/22 10:10:27;;;;;;;15.38;6.88;;;;;;;37.06;32.53;99166.38;5013529;28;20408;-79
2023/07/22 10:12:53;;;;;;;;;;;;;;;36.75;32.96;99156.50;5015516;28;20033;-79
2023/07/22 10:15:19;;;;;;;15.15;6.78;;;;;;;36.59;32.43;99146.38;5012541;28;19922;-79
2023/07/22 10:17:45;;;;;;;19.23;7.35;;;;;;;36.20;33.28;99144.94;5013258;28;20034;-79
2023/07/22 10:20:15;;;;;;;15.70;6.40;;;;;;;36.56;33.04;99153.28;5013386;28;20465;-79
2023/07/22 10:22:45;;;;;;;10.88;5.85;;;;;;;35.53;33.58;99146.06;5014773;28;20033;-79
2023/07/22 10:25:12;;;;;;;15.65;6.80;;;;;;;35.99;33.79;99135.53;5014385;28;20091;-79
2023/07/22 10:27:42;;;;;;;12.02;6.22;;;;;;;36.63;31.88;99137.41;5014744;28;20382;-79
2023/07/22 10:30:10;;;;;;;11.77;5.75;;;;;;;36.77;30.93;99144.34;5012952;28;20084;-80
2023/07/22 10:32:43;;;;;;;14.43;6.20;;;;;;;36.88;31.19;99134.81;5012072;28;20026;-80
2023/07/22 10:35:17;;;;;;;13.90;6.65;;;;;;;36.62;31.50;99133.69;5014552;28;20050;-79
2023/07/22 10:37:45;;;;;;;16.25;6.25;;;;;;;37.06;31.31;99121.88;5013350;28;20099;-79
2023/07/22 10:40:29;;;;;;;10.55;6.55;;;;;;;37.52;30.37;99122.66;5014649;28;20408;-80
2023/07/22 10:43:04;;;;;;;15.52;6.97;;;;;;;37.85;30.36;99103.50;5014124;28;20496;-79
2023/07/22 10:45:32;;;;;;;14.90;7.63;;;;;;;37.97;29.50;99097.63;5013292;28;20032;-79
2023/07/22 10:48:09;;;;;;;16.30;6.53;;;;;;;37.89;28.88;99094.47;5012044;28;20467;-79
2023/07/22 10:50:54;;;;;;;19.52;7.30;;;;;;;37.91;28.52;99095.53;5012976;28;20095;-79
2023/07/22 10:53:26;;;;;;;14.65;5.53;;;;;;;37.69;29.62;99099.28;5013130;28;20034;-79
2023/07/22 10:56:12;;;;;;;18.38;5.70;;;;;;;37.83;28.67;99096.59;5013888;28;20033;-79
2023/07/22 10:58:44;;;;;;;10.40;6.32;;;;;;;38.27;27.54;99100.69;5012949;28;20033;-79
2023/07/22 11:01:28;;;;;;;14.38;8.27;;;;;;;38.31;28.64;99088.72;5014106;28;20100;-79
2023/07/22 11:04:18;;;;;;;13.35;6.30;;;;;;;38.54;28.62;99082.78;5012825;28;20083;-79
2023/07/22 11:06:43;;;;;;;12.13;6.18;;;;;;;38.21;27.90;99079.50;5012857;28;20033;-79
2023/07/22 11:09:43;;;;;;;13.68;6.20;;;;;;;38.31;27.66;99077.06;5012019;28;20034;-79
2023/07/22 11:12:10;;;;;;;12.73;6.38;;;;;;;38.21;27.54;99085.34;5001794;28;20053;-79
2023/07/22 11:14:46;;;;;;;21.88;6.78;;;;;;;38.25;26.94;99087.97;5014091;28;20108;-80
2023/07/22 11:17:11;;;;;;;21.08;7.95;;;;;;;38.50;27.21;99073.53;5013887;28;20084;-79
2023/07/22 11:19:38;;;;;;;16.60;6.88;;;;;;;38.46;26.55;99062.88;5013906;28;20572;-79
2023/07/22 11:22:05;;;;;;;16.85;7.15;;;;;;;38.46;26.88;99077.50;5013740;28;20412;-79
2023/07/22 11:24:33;;;;;;;17.40;7.80;;;;;;;38.74;25.98;99073.63;5011224;28;20083;-79